createdAt,value
2022-08-28T00:04:43.718Z,87374.50
2022-08-28T00:11:10.574Z,87371.88
2022-08-28T00:13:37.884Z,87366.06
2022-08-28T00:16:05.592Z,87369.84
2022-08-28T00:18:32.916Z,87372.09
2022-08-28T00:21:01.380Z,87358.00
2022-08-28T00:23:42.251Z,87358.09
2022-08-28T00:26:11.970Z,87362.59
2022-08-28T00:28:39.162Z,87354.25
2022-08-28T00:35:06.237Z,87347.56
2022-08-28T00:37:33.439Z,87348.38
2022-08-28T00:40:00.847Z,87351.47
2022-08-28T00:42:29.326Z,87343.81
2022-08-28T00:44:56.530Z,87348.78
2022-08-28T00:47:23.711Z,87353.03
2022-08-28T00:49:55.843Z,87353.84
2022-08-28T00:57:20.647Z,87351.81
2022-08-28T00:59:54.193Z,87356.72
2022-08-28T01:06:30.687Z,87347.41
2022-08-28T01:08:59.098Z,87353.84
2022-08-28T01:11:27.923Z,87361.03
2022-08-28T01:13:58.399Z,87355.69
2022-08-28T01:16:32.331Z,87352.28
2022-08-28T01:19:04.592Z,87351.97
2022-08-28T01:22:16.539Z,87356.56
2022-08-28T01:24:48.358Z,87355.06
2022-08-28T01:27:16.420Z,87356.97
2022-08-28T01:29:45.193Z,87357.38
2022-08-28T01:32:31.779Z,87355.06
2022-08-28T01:34:59.766Z,87364.56
2022-08-28T01:37:27.020Z,87356.56
2022-08-28T01:39:54.370Z,87357.31
2022-08-28T01:46:21.315Z,87354.38
2022-08-28T01:48:49.233Z,87357.72
2022-08-28T01:51:17.963Z,87350.91
2022-08-28T01:53:46.822Z,87359.69
2022-08-28T01:56:16.617Z,87354.66
2022-08-28T02:02:56.077Z,87345.97
2022-08-28T02:05:26.026Z,87339.09
2022-08-28T02:11:52.782Z,87342.63
2022-08-28T02:18:21.164Z,87344.19
2022-08-28T02:20:48.375Z,87339.22
2022-08-28T02:23:17.265Z,87337.22
2022-08-28T02:29:54.055Z,87334.72
2022-08-28T02:32:21.513Z,87329.75
2022-08-28T02:34:48.697Z,87333.88
2022-08-28T02:37:15.970Z,87334.66
2022-08-28T02:39:43.300Z,87328.22
2022-08-28T02:42:10.458Z,87328.97
2022-08-28T02:44:38.277Z,87334.66
2022-08-28T02:47:05.649Z,87334.72
2022-08-28T02:57:42.575Z,87326.88
2022-08-28T03:00:13.725Z,87328.34
2022-08-28T03:02:43.333Z,87333.69
2022-08-28T03:05:11.394Z,87334.84
2022-08-28T03:07:38.703Z,87331.44
2022-08-28T03:10:08.614Z,87337.44
2022-08-28T03:16:45.683Z,87326.91
2022-08-28T03:19:13.128Z,87329.56
2022-08-28T03:21:40.332Z,87335.66
2022-08-28T03:24:07.696Z,87334.13
2022-08-28T03:30:44.601Z,87339.63
2022-08-28T03:33:11.925Z,87339.94
2022-08-28T03:39:38.865Z,87335.13
2022-08-28T03:42:06.114Z,87330.91
2022-08-28T03:44:34.228Z,87334.34
2022-08-28T03:47:01.549Z,87333.56
2022-08-28T03:49:28.755Z,87332.47
2022-08-28T03:51:56.065Z,87342.38
2022-08-28T03:54:23.441Z,87333.66
2022-08-28T03:56:50.827Z,87340.53
2022-08-28T03:59:19.048Z,87337.53
2022-08-28T04:01:46.409Z,87344.00
2022-08-28T04:04:13.876Z,87338.75
2022-08-28T04:06:41.892Z,87345.22
2022-08-28T04:09:09.162Z,87351.28
2022-08-28T04:11:41.377Z,87352.06
2022-08-28T04:14:10.459Z,87351.38
2022-08-28T04:16:38.415Z,87349.84
2022-08-28T04:19:05.687Z,87354.06
2022-08-28T04:21:32.880Z,87347.19
2022-08-28T04:24:00.100Z,87344.59
2022-08-28T04:26:27.941Z,87337.72
2022-08-28T04:28:55.995Z,87341.53
2022-08-28T04:31:31.805Z,87338.53
2022-08-28T04:34:05.494Z,87346.94
2022-08-28T04:36:33.481Z,87349.28
2022-08-28T04:39:02.614Z,87356.53
2022-08-28T04:41:30.059Z,87353.88
2022-08-28T04:43:58.665Z,87363.75
2022-08-28T04:46:25.962Z,87366.75
2022-08-28T04:48:53.204Z,87363.69
2022-08-28T04:59:13.738Z,87374.56
2022-08-28T05:01:42.474Z,87363.09
2022-08-28T05:08:09.199Z,87372.97
2022-08-28T05:10:40.264Z,87376.03
2022-08-28T05:13:10.502Z,87373.72
2022-08-28T05:15:43.271Z,87382.38
2022-08-28T05:18:12.017Z,87385.31
2022-08-28T05:20:46.121Z,87387.59
2022-08-28T05:31:34.106Z,87391.38
2022-08-28T05:34:02.906Z,87387.53
2022-08-28T05:36:34.709Z,87395.41
2022-08-28T05:39:05.820Z,87396.88
2022-08-28T05:41:34.293Z,87389.56
2022-08-28T05:44:06.550Z,87394.44
2022-08-28T05:46:34.506Z,87394.06
2022-08-28T05:49:01.984Z,87396.66
2022-08-28T05:51:30.123Z,87396.56
2022-08-28T05:53:58.451Z,87395.44
2022-08-28T05:56:30.003Z,87390.41
2022-08-28T06:04:26.127Z,87383.91
2022-08-28T06:06:54.283Z,87390.25
2022-08-28T06:13:22.120Z,87400.84
2022-08-28T06:16:17.130Z,87389.75
2022-08-28T06:18:44.563Z,87391.66
2022-08-28T06:25:11.197Z,87394.09
2022-08-28T06:27:38.555Z,87395.47
2022-08-28T06:38:12.889Z,87390.91
2022-08-28T06:40:49.258Z,87399.53
2022-08-28T06:43:23.551Z,87393.75
2022-08-28T06:49:50.516Z,87398.19
2022-08-28T06:52:18.101Z,87404.94
2022-08-28T06:54:55.632Z,87406.72
2022-08-28T07:01:54.962Z,87408.94
2022-08-28T07:12:31.724Z,87415.16
2022-08-28T07:14:59.173Z,87426.03
2022-08-28T07:17:26.482Z,87424.03
2022-08-28T07:24:57.874Z,87426.84
2022-08-28T07:31:29.533Z,87428.19
2022-08-28T07:33:57.136Z,87431.56
2022-08-28T07:36:29.842Z,87427.66
2022-08-28T07:38:59.707Z,87427.91
2022-08-28T07:41:31.329Z,87429.75
2022-08-28T07:43:59.358Z,87427.75
2022-08-28T07:46:26.874Z,87423.94
2022-08-28T08:01:24.667Z,87437.63
2022-08-28T08:03:51.967Z,87443.25
2022-08-28T08:10:34.801Z,87449.53
2022-08-28T08:13:02.017Z,87441.41
2022-08-28T08:15:31.339Z,87443.94
2022-08-28T08:17:58.849Z,87438.09
2022-08-28T08:24:27.351Z,87444.22
2022-08-28T08:27:00.155Z,87436.44
2022-08-28T08:29:35.267Z,87440.88
2022-08-28T08:40:13.729Z,87441.63
2022-08-28T08:42:48.697Z,87448.63
2022-08-28T08:45:19.949Z,87441.59
2022-08-28T08:47:54.138Z,87437.78
2022-08-28T08:54:31.137Z,87445.63
2022-08-28T08:57:02.291Z,87447.63
2022-08-28T08:59:34.478Z,87448.97
2022-08-28T09:02:18.917Z,87454.97
2022-08-28T09:10:00.048Z,87445.31
2022-08-28T09:12:31.382Z,87445.88
2022-08-28T09:23:12.689Z,87433.47
2022-08-28T09:26:04.444Z,87432.78
2022-08-28T09:28:39.372Z,87432.13
2022-08-28T09:31:10.706Z,87438.13
2022-08-28T09:33:45.074Z,87437.09
2022-08-28T09:40:32.274Z,87425.19
2022-08-28T09:43:25.430Z,87426.72
2022-08-28T09:46:02.769Z,87430.47
2022-08-28T09:48:41.461Z,87430.88
2022-08-28T09:55:18.038Z,87423.38
2022-08-28T09:57:46.844Z,87430.22
2022-08-28T10:05:47.451Z,87420.50
2022-08-28T10:08:23.523Z,87426.81
2022-08-28T10:11:01.198Z,87421.56
2022-08-28T10:13:39.640Z,87420.84
2022-08-28T10:20:37.845Z,87425.53
2022-08-28T10:23:24.710Z,87420.50
2022-08-28T10:26:25.008Z,87420.16
2022-08-28T10:29:09.765Z,87415.31
2022-08-28T10:32:15.049Z,87414.34
2022-08-28T10:35:08.897Z,87411.44
2022-08-28T10:37:47.738Z,87415.34
2022-08-28T10:40:26.300Z,87408.91
2022-08-28T10:46:58.058Z,87410.91
2022-08-28T10:49:39.728Z,87413.03
2022-08-28T10:52:19.634Z,87406.06
2022-08-28T11:02:59.454Z,87406.66
2022-08-28T11:05:36.616Z,87403.59
2022-08-28T11:08:20.253Z,87409.78
2022-08-28T11:14:57.537Z,87407.69
2022-08-28T11:17:25.112Z,87408.44
2022-08-28T11:20:01.666Z,87409.19
2022-08-28T11:22:38.248Z,87399.16
2022-08-28T11:25:34.387Z,87401.91
2022-08-28T11:28:37.098Z,87396.03
2022-08-28T11:35:30.744Z,87385.88
2022-08-28T11:37:59.104Z,87390.44
2022-08-28T11:40:32.812Z,87403.59
2022-08-28T11:43:16.201Z,87392.09
2022-08-28T11:49:40.974Z,87392.09
2022-08-28T11:56:41.151Z,87391.50
2022-08-28T11:59:35.213Z,87397.19
2022-08-28T12:02:40.410Z,87386.94
2022-08-28T12:08:59.161Z,87400.56
2022-08-28T12:11:59.395Z,87395.03
2022-08-28T12:14:26.505Z,87396.38
2022-08-28T12:16:59.731Z,87395.75
2022-08-28T12:19:34.093Z,87393.97
2022-08-28T12:22:16.266Z,87401.56
2022-08-28T12:29:36.092Z,87403.06
2022-08-28T12:32:40.564Z,87403.78
2022-08-28T12:35:22.686Z,87401.72
2022-08-28T12:37:56.080Z,87407.69
2022-08-28T12:44:33.496Z,87408.16
2022-08-28T12:47:59.417Z,87409.84
2022-08-28T12:50:33.524Z,87399.66
2022-08-28T12:53:06.413Z,87393.53
2022-08-28T12:55:34.623Z,87401.91
2022-08-28T12:58:01.903Z,87408.34
2022-08-28T13:04:37.252Z,87415.34
2022-08-28T13:11:04.943Z,87417.09
2022-08-28T13:13:46.686Z,87418.88
2022-08-28T13:16:35.272Z,87420.22
2022-08-28T13:19:05.497Z,87421.28
2022-08-28T13:30:16.648Z,87422.72
2022-08-28T13:33:02.547Z,87415.22
2022-08-28T13:35:37.025Z,87420.41
2022-08-28T13:43:08.156Z,87424.94
2022-08-28T13:45:44.191Z,87419.81
2022-08-28T13:48:19.866Z,87427.09
2022-08-28T13:50:52.938Z,87428.09
2022-08-28T13:53:21.452Z,87444.69
2022-08-28T13:55:50.491Z,87453.09
2022-08-28T14:02:27.826Z,87452.25
2022-08-28T14:04:55.090Z,87459.13
2022-08-28T14:07:22.569Z,87461.31
2022-08-28T14:09:54.052Z,87465.50
2022-08-28T14:12:32.695Z,87464.09
2022-08-28T14:15:01.312Z,87460.59
2022-08-28T14:21:21.054Z,87463.03
2022-08-28T14:23:48.344Z,87456.19
2022-08-28T14:30:15.494Z,87459.63
2022-08-28T14:32:42.942Z,87458.56
2022-08-28T14:35:10.893Z,87457.50
2022-08-28T14:41:47.743Z,87451.31
2022-08-28T14:44:15.705Z,87452.63
2022-08-28T14:46:46.192Z,87454.00
2022-08-28T14:53:14.874Z,87446.47
2022-08-28T14:55:47.825Z,87437.53
2022-08-28T14:58:17.651Z,87434.47
2022-08-28T15:00:49.263Z,87431.44
2022-08-28T15:08:19.481Z,87433.38
2022-08-28T15:10:46.824Z,87435.88
2022-08-28T15:13:15.323Z,87432.41
2022-08-28T15:19:52.338Z,87435.59
2022-08-28T15:22:27.485Z,87434.31
2022-08-28T15:24:55.677Z,87435.69
2022-08-28T15:27:23.015Z,87437.66
2022-08-28T15:29:50.441Z,87456.06
2022-08-28T15:32:17.615Z,87456.84
2022-08-28T15:34:44.832Z,87446.47
2022-08-28T15:37:13.348Z,87449.75
2022-08-28T15:39:40.781Z,87453.78
2022-08-28T15:42:08.742Z,87450.16
2022-08-28T15:44:36.366Z,87463.13
2022-08-28T15:47:04.029Z,87458.44
2022-08-28T15:53:27.665Z,87465.34
2022-08-28T15:55:54.934Z,87458.72
2022-08-28T16:06:20.748Z,87450.94
2022-08-28T16:08:49.440Z,87453.47
2022-08-28T16:11:19.970Z,87457.91
2022-08-28T16:13:47.215Z,87447.91
2022-08-28T16:16:14.639Z,87448.66
2022-08-28T16:19:05.561Z,87450.53
2022-08-28T16:21:33.463Z,87465.16
2022-08-28T16:35:56.985Z,87473.00
2022-08-28T16:39:17.976Z,87468.63
2022-08-28T16:41:45.161Z,87468.31
2022-08-28T16:44:12.457Z,87469.84
2022-08-28T16:47:11.016Z,87472.63
2022-08-28T16:49:38.244Z,87469.00
2022-08-28T16:52:19.941Z,87465.38
2022-08-28T16:55:25.355Z,87468.31
2022-08-28T16:58:47.059Z,87466.16
2022-08-28T17:01:18.001Z,87471.31
2022-08-28T17:03:49.128Z,87471.31
2022-08-28T17:06:24.026Z,87477.44
2022-08-28T17:17:01.530Z,87486.50
2022-08-28T17:19:28.745Z,87492.53
2022-08-28T17:21:55.966Z,87487.38
2022-08-28T17:32:24.523Z,87498.63
2022-08-28T17:34:51.962Z,87510.06
2022-08-28T17:41:18.470Z,87510.28
2022-08-28T17:43:45.699Z,87509.50
2022-08-28T17:46:20.190Z,87512.38
2022-08-28T17:48:54.312Z,87514.84
2022-08-28T17:55:32.677Z,87530.00
2022-08-28T17:57:59.861Z,87531.69
2022-08-28T18:00:27.177Z,87531.69
2022-08-28T18:07:03.844Z,87563.59
2022-08-28T18:09:31.150Z,87565.63
2022-08-28T18:15:59.118Z,87585.09
2022-08-28T18:18:34.434Z,87580.59
2022-08-28T18:21:03.934Z,87584.09
2022-08-28T18:23:31.218Z,87579.25
2022-08-28T18:25:58.441Z,87587.78
2022-08-28T18:28:26.434Z,87591.63
2022-08-28T18:30:53.903Z,87586.72
2022-08-28T18:33:24.537Z,87594.41
2022-08-28T18:35:53.126Z,87595.88
2022-08-28T18:38:23.110Z,87597.81
2022-08-28T18:40:50.591Z,87602.50
2022-08-28T18:43:17.868Z,87614.00
2022-08-28T18:45:45.026Z,87614.84
2022-08-28T18:48:12.539Z,87619.94
2022-08-28T18:50:44.400Z,87615.03
2022-08-28T18:53:15.541Z,87623.03
2022-08-28T18:55:43.569Z,87620.03
2022-08-28T18:58:15.099Z,87619.69
2022-08-28T19:00:44.143Z,87632.63
2022-08-28T19:03:12.194Z,87630.03
2022-08-28T19:05:39.991Z,87629.38
2022-08-28T19:08:07.876Z,87632.88
2022-08-28T19:10:37.174Z,87628.75
2022-08-28T19:13:05.952Z,87625.06
2022-08-28T19:15:34.756Z,87631.31
2022-08-28T19:18:03.710Z,87636.66
2022-08-28T19:20:32.211Z,87634.78
2022-08-28T19:23:00.337Z,87628.78
2022-08-28T19:25:29.711Z,87627.69
2022-08-28T19:28:01.725Z,87635.13
2022-08-28T19:30:33.565Z,87624.81
2022-08-28T19:33:04.788Z,87631.69
2022-08-28T19:35:32.910Z,87619.56
2022-08-28T19:38:00.699Z,87620.81
2022-08-28T19:40:28.266Z,87619.72
2022-08-28T19:42:56.088Z,87615.13
2022-08-28T19:45:23.939Z,87616.63
2022-08-28T19:47:51.561Z,87628.97
2022-08-28T19:50:19.852Z,87633.53
2022-08-28T19:52:47.617Z,87632.09
2022-08-28T19:55:22.934Z,87646.69
2022-08-28T19:57:50.497Z,87643.00
2022-08-28T20:00:21.349Z,87653.34
2022-08-28T20:02:50.318Z,87647.72
2022-08-28T20:05:18.707Z,87656.19
2022-08-28T20:07:46.351Z,87652.44
2022-08-28T20:10:15.471Z,87657.09
2022-08-28T20:12:48.246Z,87656.00
2022-08-28T20:15:18.529Z,87657.59
2022-08-28T20:17:49.641Z,87673.28
2022-08-28T20:20:21.271Z,87671.06
2022-08-28T20:22:49.215Z,87668.81
2022-08-28T20:25:22.106Z,87667.44
2022-08-28T20:27:49.660Z,87667.84
2022-08-28T20:30:18.044Z,87672.06
2022-08-28T20:32:45.618Z,87669.06
2022-08-28T20:35:13.862Z,87674.06
2022-08-28T20:37:45.769Z,87676.09
2022-08-28T20:40:16.674Z,87685.25
2022-08-28T20:42:45.380Z,87688.63
2022-08-28T20:45:14.117Z,87695.44
2022-08-28T20:47:41.688Z,87695.50
2022-08-28T20:50:10.162Z,87700.84
2022-08-28T20:52:38.563Z,87690.63
2022-08-28T20:55:07.916Z,87702.13
2022-08-28T20:57:36.269Z,87700.69
2022-08-28T21:00:07.175Z,87701.13
2022-08-28T21:02:34.756Z,87701.19
2022-08-28T21:05:02.578Z,87700.84
2022-08-28T21:07:30.262Z,87703.94
2022-08-28T21:10:06.094Z,87703.94
2022-08-28T21:12:36.886Z,87707.72
2022-08-28T21:15:06.495Z,87697.88
2022-08-28T21:17:34.597Z,87697.94
2022-08-28T21:20:06.399Z,87707.09
2022-08-28T21:22:35.867Z,87698.78
2022-08-28T21:25:05.734Z,87691.97
2022-08-28T21:27:33.730Z,87693.88
2022-08-28T21:30:02.741Z,87693.53
2022-08-28T21:32:31.461Z,87699.66
2022-08-28T21:34:59.158Z,87701.22
2022-08-28T21:37:26.727Z,87702.41
2022-08-28T21:39:56.455Z,87703.59
2022-08-28T21:42:24.852Z,87702.84
2022-08-28T21:44:52.786Z,87703.63
2022-08-28T21:47:21.690Z,87709.72
2022-08-28T21:49:53.920Z,87710.88
2022-08-28T21:52:24.766Z,87713.53
2022-08-28T21:55:00.784Z,87717.38
2022-08-28T21:57:29.243Z,87713.91
2022-08-28T21:59:57.054Z,87722.28
2022-08-28T22:02:25.142Z,87714.69
2022-08-28T22:04:52.938Z,87723.03
2022-08-28T22:07:21.041Z,87717.78
2022-08-28T22:09:48.602Z,87718.19
2022-08-28T22:15:53.768Z,87719.84
2022-08-28T22:18:21.453Z,87721.75
2022-08-28T22:20:55.836Z,87719.06
2022-08-28T22:23:23.808Z,87716.41
2022-08-28T22:25:51.618Z,87715.66
2022-08-28T22:28:19.761Z,87714.94
2022-08-28T22:30:47.349Z,87719.16
2022-08-28T22:33:15.189Z,87722.25
2022-08-28T22:35:42.826Z,87726.03
2022-08-28T22:38:10.327Z,87721.56
2022-08-28T22:40:39.461Z,87724.28
2022-08-28T22:43:07.341Z,87717.84
2022-08-28T22:45:34.967Z,87727.41
2022-08-28T22:48:02.845Z,87728.88
2022-08-28T22:50:30.395Z,87728.19
2022-08-28T22:52:57.983Z,87732.00
2022-08-28T22:55:25.583Z,87731.25
2022-08-28T23:09:28.412Z,87735.97
2022-08-28T23:11:56.900Z,87729.94
2022-08-28T23:14:27.799Z,87721.53
2022-08-28T23:16:55.450Z,87724.94
2022-08-28T23:19:58.027Z,87727.25
2022-08-28T23:22:25.807Z,87729.16
2022-08-28T23:28:45.458Z,87736.47
2022-08-28T23:31:13.258Z,87730.34
2022-08-28T23:33:41.019Z,87731.84
2022-08-28T23:36:35.390Z,87730.34
2022-08-28T23:39:04.090Z,87731.84
2022-08-28T23:45:23.459Z,87730.03
2022-08-28T23:47:51.498Z,87728.47
2022-08-28T23:50:58.743Z,87731.91
2022-08-28T23:53:26.562Z,87725.47
2022-08-28T23:59:36.168Z,87722.47
